Ever Delight — 3FCB8 — position and weather

sailwx.info

Track history (hours):
 
Tides and Currents Weather Stations Pressure Air Temp Water Temp Dewpoint Dewpoint Depression Visibility Wind Speed Wind Dir Waves Ship Positions

Ever Delight

Last reported at 2016-Dec-25 22:31 UTC. Time now 2017-Jan-18 16:18 UTC.
Position N 01°53' E 102°24'.
Warning: this ship's position is 23 days out of date.

Type: Ship (hazmat cat D). MMSI: 351936000.

Date/timePositionNaut miles runAvg speedWind from/ knotsBaromVisibWave heightAir tempDewpointWater temp
2016-Dec-25 22:31N 01°53' E 102°24'1413.5
2016-Dec-25 21:30N 01°48' E 102°37'1914.1
2016-Dec-25 20:10N 01°40' E 102°54'5314.5
2016-Dec-25 16:30N 01°12' E 103°39'9 7.8
2016-Dec-25 15:22N 01°16' E 103°47'0 0.0
2016-Dec-25 13:33N 01°16' E 103°47'1 0.1
2016-Dec-25 09:29N 01°16' E 103°46'1 0.9
2016-Dec-25 08:19N 01°17' E 103°46'0 0.0
2016-Dec-25 07:33N 01°17' E 103°46'0 0.0
2016-Dec-25 06:31N 01°17' E 103°46'0 0.0
2016-Dec-25 05:33N 01°17' E 103°46'0 0.0
2016-Dec-25 04:32N 01°17' E 103°46'0 0.0
2016-Dec-25 03:33N 01°17' E 103°46'0 0.0
2016-Dec-25 02:33N 01°17' E 103°46'0 0.1
2016-Dec-25 01:32N 01°17' E 103°46'0 0.2
2016-Dec-25 00:33N 01°17' E 103°46'1 1.1
2016-Dec-24 23:30N 01°16' E 103°45'8 8.8
2016-Dec-24 22:33N 01°15' E 103°54'0 0.3
2016-Dec-24 21:28N 01°15' E 103°53'0 0.0
2016-Dec-24 20:19N 01°15' E 103°53'0 0.0
2016-Dec-24 14:33N 01°15' E 103°53'0 0.0
2016-Dec-24 13:33N 01°15' E 103°53'0 0.0
2016-Dec-24 11:29N 01°15' E 103°53'0 0.1
2016-Dec-24 10:33N 01°15' E 103°53'4 4.1
2016-Dec-24 09:33N 01°11' E 103°51'88 3.2
2016-Dec-23 06:33N 01°45' E 102°31'1515.5
2016-Dec-23 05:33N 01°52' E 102°17'  
Track history (hours):
 
Tides and Currents Weather Stations Pressure Air Temp Water Temp Dewpoint Dewpoint Depression Visibility Wind Speed Wind Dir Waves Ship Positions

Ever Delight

Last reported at 2016-Dec-25 22:31 UTC. Time now 2017-Jan-18 16:18 UTC.
Position N 01°53' E 102°24'.
Warning: this ship's position is 23 days out of date.

Type: Ship (hazmat cat D). MMSI: 351936000.

Date/timePositionNaut miles runAvg speedWind from/ knotsBaromVisibWave heightAir tempDewpointWater temp
2016-Dec-25 22:31N 01°53' E 102°24'1413.5
2016-Dec-25 21:30N 01°48' E 102°37'1914.1
2016-Dec-25 20:10N 01°40' E 102°54'5314.5
2016-Dec-25 16:30N 01°12' E 103°39'9 7.8
2016-Dec-25 15:22N 01°16' E 103°47'0 0.0
2016-Dec-25 13:33N 01°16' E 103°47'1 0.1
2016-Dec-25 09:29N 01°16' E 103°46'1 0.9
2016-Dec-25 08:19N 01°17' E 103°46'0 0.0
2016-Dec-25 07:33N 01°17' E 103°46'0 0.0
2016-Dec-25 06:31N 01°17' E 103°46'0 0.0
2016-Dec-25 05:33N 01°17' E 103°46'0 0.0
2016-Dec-25 04:32N 01°17' E 103°46'0 0.0
2016-Dec-25 03:33N 01°17' E 103°46'0 0.0
2016-Dec-25 02:33N 01°17' E 103°46'0 0.1
2016-Dec-25 01:32N 01°17' E 103°46'0 0.2
2016-Dec-25 00:33N 01°17' E 103°46'1 1.1
2016-Dec-24 23:30N 01°16' E 103°45'8 8.8
2016-Dec-24 22:33N 01°15' E 103°54'0 0.3
2016-Dec-24 21:28N 01°15' E 103°53'0 0.0
2016-Dec-24 20:19N 01°15' E 103°53'0 0.0
2016-Dec-24 14:33N 01°15' E 103°53'0 0.0
2016-Dec-24 13:33N 01°15' E 103°53'0 0.0
2016-Dec-24 11:29N 01°15' E 103°53'0 0.1
2016-Dec-24 10:33N 01°15' E 103°53'4 4.1
2016-Dec-24 09:33N 01°11' E 103°51'88 3.2
2016-Dec-23 06:33N 01°45' E 102°31'1515.5
2016-Dec-23 05:33N 01°52' E 102°17'  

Dump ship's entire track history